sensor_id;sensor_type;location;lat;lon;timestamp;P1;durP1;ratioP1;P2;durP2;ratioP2
50350;SDS011;36250;48.740;22.174;2023-05-29T00:00:10;11.90;;;4.20;;
50350;SDS011;36250;48.740;22.174;2023-05-29T00:02:38;8.68;;;4.32;;
50350;SDS011;36250;48.740;22.174;2023-05-29T00:05:04;10.50;;;4.63;;
50350;SDS011;36250;48.740;22.174;2023-05-29T00:07:30;10.35;;;5.05;;
50350;SDS011;36250;48.740;22.174;2023-05-29T00:09:57;11.93;;;5.03;;
50350;SDS011;36250;48.740;22.174;2023-05-29T00:12:23;7.43;;;5.00;;
50350;SDS011;36250;48.740;22.174;2023-05-29T00:14:48;9.57;;;4.75;;
50350;SDS011;36250;48.740;22.174;2023-05-29T00:17:14;8.35;;;4.50;;
50350;SDS011;36250;48.740;22.174;2023-05-29T00:19:40;8.82;;;4.97;;
50350;SDS011;36250;48.740;22.174;2023-05-29T00:22:06;9.25;;;4.65;;
50350;SDS011;36250;48.740;22.174;2023-05-29T00:24:31;9.88;;;4.03;;
50350;SDS011;36250;48.740;22.174;2023-05-29T00:26:57;10.85;;;4.70;;
50350;SDS011;36250;48.740;22.174;2023-05-29T00:29:22;7.93;;;4.32;;
50350;SDS011;36250;48.740;22.174;2023-05-29T00:31:48;11.82;;;4.97;;
50350;SDS011;36250;48.740;22.174;2023-05-29T00:34:13;9.13;;;4.60;;
50350;SDS011;36250;48.740;22.174;2023-05-29T00:36:39;12.60;;;4.85;;
50350;SDS011;36250;48.740;22.174;2023-05-29T00:39:05;13.10;;;5.30;;
50350;SDS011;36250;48.740;22.174;2023-05-29T00:41:30;9.65;;;4.57;;
50350;SDS011;36250;48.740;22.174;2023-05-29T00:43:55;5.57;;;4.05;;
50350;SDS011;36250;48.740;22.174;2023-05-29T00:46:21;8.40;;;4.22;;
50350;SDS011;36250;48.740;22.174;2023-05-29T00:48:46;11.48;;;4.63;;
50350;SDS011;36250;48.740;22.174;2023-05-29T00:51:12;6.43;;;4.25;;
50350;SDS011;36250;48.740;22.174;2023-05-29T00:53:40;9.20;;;4.38;;
50350;SDS011;36250;48.740;22.174;2023-05-29T00:56:07;8.77;;;4.57;;
50350;SDS011;36250;48.740;22.174;2023-05-29T00:58:33;6.82;;;4.47;;
50350;SDS011;36250;48.740;22.174;2023-05-29T01:00:59;11.75;;;4.25;;
50350;SDS011;36250;48.740;22.174;2023-05-29T01:03:25;7.82;;;4.22;;
50350;SDS011;36250;48.740;22.174;2023-05-29T01:05:51;8.45;;;4.32;;
50350;SDS011;36250;48.740;22.174;2023-05-29T01:08:17;12.52;;;4.65;;
50350;SDS011;36250;48.740;22.174;2023-05-29T01:10:42;10.73;;;4.40;;
50350;SDS011;36250;48.740;22.174;2023-05-29T01:13:09;13.60;;;5.00;;
50350;SDS011;36250;48.740;22.174;2023-05-29T01:15:37;8.48;;;4.78;;
50350;SDS011;36250;48.740;22.174;2023-05-29T01:28:31;10.20;;;5.18;;
50350;SDS011;36250;48.740;22.174;2023-05-29T01:31:02;8.50;;;4.38;;
50350;SDS011;36250;48.740;22.174;2023-05-29T01:33:29;11.82;;;5.03;;
50350;SDS011;36250;48.740;22.174;2023-05-29T01:35:54;10.63;;;5.03;;
50350;SDS011;36250;48.740;22.174;2023-05-29T01:38:19;9.15;;;4.57;;
50350;SDS011;36250;48.740;22.174;2023-05-29T01:40:45;6.35;;;4.25;;
50350;SDS011;36250;48.740;22.174;2023-05-29T01:43:11;9.65;;;5.28;;
50350;SDS011;36250;48.740;22.174;2023-05-29T01:45:38;8.45;;;5.03;;
50350;SDS011;36250;48.740;22.174;2023-05-29T01:48:04;7.55;;;4.72;;
50350;SDS011;36250;48.740;22.174;2023-05-29T01:50:30;9.45;;;5.22;;
50350;SDS011;36250;48.740;22.174;2023-05-29T01:52:55;10.13;;;5.13;;
50350;SDS011;36250;48.740;22.174;2023-05-29T01:55:21;9.40;;;5.07;;
50350;SDS011;36250;48.740;22.174;2023-05-29T01:57:46;10.10;;;4.93;;
50350;SDS011;36250;48.740;22.174;2023-05-29T02:00:12;9.43;;;4.88;;
50350;SDS011;36250;48.740;22.174;2023-05-29T02:02:41;9.07;;;5.25;;
50350;SDS011;36250;48.740;22.174;2023-05-29T02:05:07;8.98;;;5.63;;
50350;SDS011;36250;48.740;22.174;2023-05-29T02:07:33;6.93;;;4.80;;
50350;SDS011;36250;48.740;22.174;2023-05-29T02:10:05;17.00;;;5.47;;
50350;SDS011;36250;48.740;22.174;2023-05-29T02:12:31;10.38;;;4.85;;
50350;SDS011;36250;48.740;22.174;2023-05-29T02:14:56;11.90;;;4.38;;
50350;SDS011;36250;48.740;22.174;2023-05-29T02:17:22;12.02;;;4.40;;
50350;SDS011;36250;48.740;22.174;2023-05-29T02:19:48;7.70;;;4.82;;
50350;SDS011;36250;48.740;22.174;2023-05-29T02:22:13;9.80;;;4.93;;
50350;SDS011;36250;48.740;22.174;2023-05-29T02:24:38;8.80;;;4.45;;
50350;SDS011;36250;48.740;22.174;2023-05-29T02:27:04;9.73;;;4.75;;
50350;SDS011;36250;48.740;22.174;2023-05-29T02:29:30;9.30;;;4.53;;
50350;SDS011;36250;48.740;22.174;2023-05-29T02:31:55;16.10;;;4.75;;
50350;SDS011;36250;48.740;22.174;2023-05-29T02:34:21;8.00;;;4.47;;
50350;SDS011;36250;48.740;22.174;2023-05-29T02:36:49;6.70;;;4.95;;
50350;SDS011;36250;48.740;22.174;2023-05-29T02:39:17;8.07;;;4.60;;
50350;SDS011;36250;48.740;22.174;2023-05-29T02:41:42;11.32;;;4.60;;
50350;SDS011;36250;48.740;22.174;2023-05-29T02:44:08;11.23;;;4.47;;
50350;SDS011;36250;48.740;22.174;2023-05-29T02:46:33;11.52;;;5.05;;
50350;SDS011;36250;48.740;22.174;2023-05-29T02:48:58;8.00;;;5.15;;
50350;SDS011;36250;48.740;22.174;2023-05-29T02:51:23;11.90;;;4.97;;
50350;SDS011;36250;48.740;22.174;2023-05-29T02:53:49;6.93;;;4.95;;
50350;SDS011;36250;48.740;22.174;2023-05-29T02:56:14;7.45;;;4.38;;
50350;SDS011;36250;48.740;22.174;2023-05-29T02:58:41;10.77;;;4.72;;
50350;SDS011;36250;48.740;22.174;2023-05-29T03:01:06;8.45;;;4.65;;
50350;SDS011;36250;48.740;22.174;2023-05-29T03:03:32;8.18;;;4.40;;
50350;SDS011;36250;48.740;22.174;2023-05-29T03:05:57;9.60;;;4.90;;
50350;SDS011;36250;48.740;22.174;2023-05-29T03:08:22;6.15;;;4.38;;
50350;SDS011;36250;48.740;22.174;2023-05-29T03:10:49;9.27;;;5.38;;
50350;SDS011;36250;48.740;22.174;2023-05-29T03:13:14;11.80;;;4.50;;
50350;SDS011;36250;48.740;22.174;2023-05-29T03:15:39;8.30;;;5.28;;
50350;SDS011;36250;48.740;22.174;2023-05-29T03:18:05;10.38;;;4.65;;
50350;SDS011;36250;48.740;22.174;2023-05-29T03:20:30;7.15;;;4.68;;
50350;SDS011;36250;48.740;22.174;2023-05-29T03:22:55;10.48;;;5.07;;
50350;SDS011;36250;48.740;22.174;2023-05-29T03:25:21;9.82;;;4.82;;
50350;SDS011;36250;48.740;22.174;2023-05-29T03:27:47;10.73;;;5.43;;
50350;SDS011;36250;48.740;22.174;2023-05-29T03:30:12;10.80;;;4.72;;
50350;SDS011;36250;48.740;22.174;2023-05-29T03:32:38;9.00;;;5.63;;
50350;SDS011;36250;48.740;22.174;2023-05-29T03:35:04;6.90;;;4.53;;
50350;SDS011;36250;48.740;22.174;2023-05-29T03:37:29;8.82;;;5.53;;
50350;SDS011;36250;48.740;22.174;2023-05-29T03:39:55;10.18;;;5.72;;
50350;SDS011;36250;48.740;22.174;2023-05-29T03:42:20;10.95;;;5.60;;
50350;SDS011;36250;48.740;22.174;2023-05-29T03:44:46;11.80;;;4.95;;
50350;SDS011;36250;48.740;22.174;2023-05-29T03:47:11;6.63;;;5.10;;
50350;SDS011;36250;48.740;22.174;2023-05-29T03:49:37;9.10;;;5.57;;
50350;SDS011;36250;48.740;22.174;2023-05-29T03:52:03;10.73;;;5.90;;
50350;SDS011;36250;48.740;22.174;2023-05-29T03:54:28;10.82;;;6.88;;
50350;SDS011;36250;48.740;22.174;2023-05-29T03:56:54;10.52;;;5.90;;
50350;SDS011;36250;48.740;22.174;2023-05-29T03:59:19;10.30;;;5.60;;
50350;SDS011;36250;48.740;22.174;2023-05-29T04:01:45;7.30;;;5.20;;
50350;SDS011;36250;48.740;22.174;2023-05-29T04:04:10;13.82;;;5.60;;
50350;SDS011;36250;48.740;22.174;2023-05-29T04:06:35;11.00;;;5.07;;
50350;SDS011;36250;48.740;22.174;2023-05-29T04:09:03;8.02;;;5.50;;
50350;SDS011;36250;48.740;22.174;2023-05-29T04:11:34;11.07;;;5.82;;
50350;SDS011;36250;48.740;22.174;2023-05-29T04:14:00;7.28;;;5.63;;
50350;SDS011;36250;48.740;22.174;2023-05-29T04:16:27;10.45;;;5.82;;
50350;SDS011;36250;48.740;22.174;2023-05-29T04:18:53;10.48;;;5.97;;
50350;SDS011;36250;48.740;22.174;2023-05-29T04:21:19;11.40;;;6.20;;
50350;SDS011;36250;48.740;22.174;2023-05-29T04:23:45;8.82;;;6.05;;
50350;SDS011;36250;48.740;22.174;2023-05-29T04:26:11;15.77;;;6.88;;
50350;SDS011;36250;48.740;22.174;2023-05-29T04:28:37;16.35;;;6.25;;
50350;SDS011;36250;48.740;22.174;2023-05-29T04:31:03;12.98;;;5.82;;
50350;SDS011;36250;48.740;22.174;2023-05-29T04:33:30;6.95;;;5.50;;
50350;SDS011;36250;48.740;22.174;2023-05-29T04:35:57;21.63;;;6.40;;
50350;SDS011;36250;48.740;22.174;2023-05-29T04:38:23;8.75;;;5.93;;
50350;SDS011;36250;48.740;22.174;2023-05-29T04:40:51;8.90;;;5.68;;
50350;SDS011;36250;48.740;22.174;2023-05-29T04:43:17;10.35;;;5.28;;
50350;SDS011;36250;48.740;22.174;2023-05-29T04:45:42;8.45;;;5.93;;
50350;SDS011;36250;48.740;22.174;2023-05-29T04:48:08;9.32;;;5.90;;
50350;SDS011;36250;48.740;22.174;2023-05-29T04:50:33;8.63;;;5.18;;
50350;SDS011;36250;48.740;22.174;2023-05-29T04:52:59;11.85;;;5.75;;
50350;SDS011;36250;48.740;22.174;2023-05-29T04:55:24;13.88;;;5.47;;
50350;SDS011;36250;48.740;22.174;2023-05-29T04:57:50;9.25;;;4.78;;
50350;SDS011;36250;48.740;22.174;2023-05-29T05:00:16;6.35;;;4.50;;
50350;SDS011;36250;48.740;22.174;2023-05-29T05:02:43;7.18;;;4.72;;
50350;SDS011;36250;48.740;22.174;2023-05-29T05:05:09;6.38;;;3.88;;
50350;SDS011;36250;48.740;22.174;2023-05-29T05:07:35;10.13;;;4.43;;
50350;SDS011;36250;48.740;22.174;2023-05-29T05:10:01;9.07;;;4.20;;
50350;SDS011;36250;48.740;22.174;2023-05-29T05:12:29;13.93;;;4.60;;
50350;SDS011;36250;48.740;22.174;2023-05-29T05:14:55;10.20;;;4.43;;
50350;SDS011;36250;48.740;22.174;2023-05-29T05:17:20;10.18;;;5.03;;
50350;SDS011;36250;48.740;22.174;2023-05-29T05:19:46;13.38;;;5.10;;
50350;SDS011;36250;48.740;22.174;2023-05-29T05:22:13;7.75;;;4.05;;
50350;SDS011;36250;48.740;22.174;2023-05-29T05:24:39;8.20;;;4.50;;
50350;SDS011;36250;48.740;22.174;2023-05-29T05:27:04;10.98;;;5.38;;
50350;SDS011;36250;48.740;22.174;2023-05-29T05:29:30;15.68;;;8.40;;
50350;SDS011;36250;48.740;22.174;2023-05-29T05:31:55;9.30;;;4.85;;
50350;SDS011;36250;48.740;22.174;2023-05-29T05:34:21;11.40;;;5.15;;
50350;SDS011;36250;48.740;22.174;2023-05-29T05:36:46;9.82;;;4.95;;
50350;SDS011;36250;48.740;22.174;2023-05-29T05:39:11;9.45;;;4.90;;
50350;SDS011;36250;48.740;22.174;2023-05-29T05:41:37;9.27;;;4.88;;
50350;SDS011;36250;48.740;22.174;2023-05-29T05:44:02;11.35;;;4.63;;
50350;SDS011;36250;48.740;22.174;2023-05-29T05:46:28;8.55;;;5.15;;
50350;SDS011;36250;48.740;22.174;2023-05-29T05:48:53;9.80;;;4.97;;
50350;SDS011;36250;48.740;22.174;2023-05-29T05:51:22;7.95;;;4.57;;
50350;SDS011;36250;48.740;22.174;2023-05-29T05:53:48;5.68;;;4.10;;
50350;SDS011;36250;48.740;22.174;2023-05-29T05:56:13;7.15;;;4.53;;
50350;SDS011;36250;48.740;22.174;2023-05-29T05:58:38;8.27;;;4.93;;
50350;SDS011;36250;48.740;22.174;2023-05-29T06:01:04;7.95;;;4.43;;
50350;SDS011;36250;48.740;22.174;2023-05-29T06:03:29;8.38;;;4.10;;
50350;SDS011;36250;48.740;22.174;2023-05-29T06:05:58;8.73;;;4.47;;
50350;SDS011;36250;48.740;22.174;2023-05-29T06:08:23;15.55;;;4.80;;
50350;SDS011;36250;48.740;22.174;2023-05-29T06:10:48;5.53;;;4.30;;
50350;SDS011;36250;48.740;22.174;2023-05-29T06:13:14;12.85;;;4.88;;
50350;SDS011;36250;48.740;22.174;2023-05-29T06:15:39;5.63;;;4.60;;
50350;SDS011;36250;48.740;22.174;2023-05-29T06:18:05;6.82;;;4.35;;
50350;SDS011;36250;48.740;22.174;2023-05-29T06:20:30;8.57;;;4.75;;
50350;SDS011;36250;48.740;22.174;2023-05-29T06:22:55;8.30;;;4.55;;
50350;SDS011;36250;48.740;22.174;2023-05-29T06:25:21;9.70;;;5.63;;
50350;SDS011;36250;48.740;22.174;2023-05-29T06:27:46;13.65;;;4.82;;
50350;SDS011;36250;48.740;22.174;2023-05-29T06:30:12;10.27;;;4.47;;
50350;SDS011;36250;48.740;22.174;2023-05-29T06:32:38;7.72;;;4.90;;
50350;SDS011;36250;48.740;22.174;2023-05-29T06:35:03;6.97;;;4.47;;
50350;SDS011;36250;48.740;22.174;2023-05-29T06:37:31;5.63;;;4.22;;
50350;SDS011;36250;48.740;22.174;2023-05-29T06:39:56;9.82;;;4.80;;
50350;SDS011;36250;48.740;22.174;2023-05-29T06:42:22;9.02;;;4.75;;
50350;SDS011;36250;48.740;22.174;2023-05-29T06:44:47;6.13;;;4.38;;
50350;SDS011;36250;48.740;22.174;2023-05-29T06:47:12;10.75;;;4.35;;
50350;SDS011;36250;48.740;22.174;2023-05-29T06:49:38;7.63;;;4.38;;
50350;SDS011;36250;48.740;22.174;2023-05-29T06:52:03;9.38;;;4.97;;
50350;SDS011;36250;48.740;22.174;2023-05-29T06:54:28;9.52;;;4.60;;
50350;SDS011;36250;48.740;22.174;2023-05-29T06:56:54;9.57;;;4.60;;
50350;SDS011;36250;48.740;22.174;2023-05-29T06:59:19;7.25;;;4.22;;
50350;SDS011;36250;48.740;22.174;2023-05-29T07:01:57;9.10;;;5.03;;
50350;SDS011;36250;48.740;22.174;2023-05-29T07:04:22;8.52;;;4.00;;
50350;SDS011;36250;48.740;22.174;2023-05-29T07:06:48;9.05;;;4.40;;
50350;SDS011;36250;48.740;22.174;2023-05-29T07:09:13;13.23;;;4.63;;
50350;SDS011;36250;48.740;22.174;2023-05-29T07:11:38;10.02;;;4.57;;
50350;SDS011;36250;48.740;22.174;2023-05-29T07:14:04;5.22;;;4.07;;
50350;SDS011;36250;48.740;22.174;2023-05-29T07:16:29;8.88;;;4.60;;
50350;SDS011;36250;48.740;22.174;2023-05-29T07:18:55;8.55;;;4.13;;
50350;SDS011;36250;48.740;22.174;2023-05-29T07:21:20;5.85;;;3.95;;
50350;SDS011;36250;48.740;22.174;2023-05-29T07:23:45;6.28;;;4.80;;
50350;SDS011;36250;48.740;22.174;2023-05-29T07:26:11;8.25;;;4.60;;
50350;SDS011;36250;48.740;22.174;2023-05-29T07:28:36;6.85;;;3.92;;
50350;SDS011;36250;48.740;22.174;2023-05-29T07:31:01;5.90;;;3.47;;
50350;SDS011;36250;48.740;22.174;2023-05-29T07:33:27;5.25;;;4.00;;
50350;SDS011;36250;48.740;22.174;2023-05-29T07:35:52;7.38;;;3.92;;
50350;SDS011;36250;48.740;22.174;2023-05-29T07:38:17;5.22;;;4.25;;
50350;SDS011;36250;48.740;22.174;2023-05-29T07:40:43;5.18;;;3.55;;
50350;SDS011;36250;48.740;22.174;2023-05-29T07:43:09;6.30;;;3.95;;
50350;SDS011;36250;48.740;22.174;2023-05-29T07:45:34;5.88;;;3.40;;
50350;SDS011;36250;48.740;22.174;2023-05-29T07:48:00;14.75;;;4.18;;
50350;SDS011;36250;48.740;22.174;2023-05-29T07:50:25;8.93;;;3.50;;
50350;SDS011;36250;48.740;22.174;2023-05-29T07:52:50;8.68;;;3.85;;
50350;SDS011;36250;48.740;22.174;2023-05-29T07:55:16;6.65;;;4.05;;
50350;SDS011;36250;48.740;22.174;2023-05-29T07:57:41;6.47;;;3.95;;
50350;SDS011;36250;48.740;22.174;2023-05-29T08:00:07;5.95;;;4.10;;
50350;SDS011;36250;48.740;22.174;2023-05-29T08:02:33;6.43;;;3.60;;
50350;SDS011;36250;48.740;22.174;2023-05-29T08:05:02;8.00;;;3.67;;
50350;SDS011;36250;48.740;22.174;2023-05-29T08:07:28;10.35;;;4.15;;
50350;SDS011;36250;48.740;22.174;2023-05-29T08:09:54;9.05;;;4.70;;
50350;SDS011;36250;48.740;22.174;2023-05-29T08:12:19;6.03;;;4.07;;
50350;SDS011;36250;48.740;22.174;2023-05-29T08:14:45;8.07;;;3.63;;
50350;SDS011;36250;48.740;22.174;2023-05-29T08:17:10;8.23;;;3.85;;
50350;SDS011;36250;48.740;22.174;2023-05-29T08:19:36;5.75;;;4.00;;
50350;SDS011;36250;48.740;22.174;2023-05-29T08:22:01;7.90;;;4.15;;
50350;SDS011;36250;48.740;22.174;2023-05-29T08:24:27;4.05;;;3.63;;
50350;SDS011;36250;48.740;22.174;2023-05-29T08:26:52;8.00;;;4.15;;
50350;SDS011;36250;48.740;22.174;2023-05-29T08:29:18;11.15;;;3.67;;
50350;SDS011;36250;48.740;22.174;2023-05-29T08:31:43;11.20;;;4.28;;
50350;SDS011;36250;48.740;22.174;2023-05-29T08:34:09;4.90;;;3.60;;
50350;SDS011;36250;48.740;22.174;2023-05-29T08:36:35;6.07;;;4.10;;
50350;SDS011;36250;48.740;22.174;2023-05-29T08:39:00;7.10;;;4.20;;
50350;SDS011;36250;48.740;22.174;2023-05-29T08:41:48;8.88;;;4.28;;
50350;SDS011;36250;48.740;22.174;2023-05-29T08:44:21;7.43;;;4.28;;
50350;SDS011;36250;48.740;22.174;2023-05-29T08:46:47;6.70;;;4.05;;
50350;SDS011;36250;48.740;22.174;2023-05-29T08:49:19;6.03;;;4.20;;
50350;SDS011;36250;48.740;22.174;2023-05-29T08:51:47;10.27;;;4.32;;
50350;SDS011;36250;48.740;22.174;2023-05-29T08:54:17;6.15;;;4.47;;
50350;SDS011;36250;48.740;22.174;2023-05-29T08:56:43;5.22;;;3.72;;
50350;SDS011;36250;48.740;22.174;2023-05-29T08:59:09;9.48;;;4.35;;
50350;SDS011;36250;48.740;22.174;2023-05-29T09:01:36;7.72;;;3.97;;
50350;SDS011;36250;48.740;22.174;2023-05-29T09:04:03;5.45;;;3.95;;
50350;SDS011;36250;48.740;22.174;2023-05-29T09:06:29;7.82;;;4.18;;
50350;SDS011;36250;48.740;22.174;2023-05-29T09:08:54;5.25;;;3.58;;
50350;SDS011;36250;48.740;22.174;2023-05-29T09:11:21;5.50;;;4.10;;
50350;SDS011;36250;48.740;22.174;2023-05-29T09:13:46;4.32;;;3.85;;
50350;SDS011;36250;48.740;22.174;2023-05-29T09:16:12;6.15;;;3.75;;
50350;SDS011;36250;48.740;22.174;2023-05-29T09:18:37;8.82;;;4.47;;
50350;SDS011;36250;48.740;22.174;2023-05-29T09:21:08;8.18;;;4.00;;
50350;SDS011;36250;48.740;22.174;2023-05-29T09:23:34;10.30;;;4.40;;
50350;SDS011;36250;48.740;22.174;2023-05-29T09:26:01;8.13;;;4.05;;
50350;SDS011;36250;48.740;22.174;2023-05-29T09:28:27;3.72;;;3.38;;
50350;SDS011;36250;48.740;22.174;2023-05-29T09:30:56;6.75;;;3.85;;
50350;SDS011;36250;48.740;22.174;2023-05-29T09:33:21;8.05;;;4.10;;
50350;SDS011;36250;48.740;22.174;2023-05-29T09:35:47;7.32;;;4.25;;
50350;SDS011;36250;48.740;22.174;2023-05-29T09:38:14;7.57;;;4.35;;
50350;SDS011;36250;48.740;22.174;2023-05-29T09:40:41;9.57;;;4.05;;
50350;SDS011;36250;48.740;22.174;2023-05-29T09:43:16;9.52;;;3.83;;
50350;SDS011;36250;48.740;22.174;2023-05-29T09:45:46;4.28;;;3.88;;
50350;SDS011;36250;48.740;22.174;2023-05-29T09:48:14;9.60;;;3.70;;
50350;SDS011;36250;48.740;22.174;2023-05-29T09:50:44;6.63;;;3.90;;
50350;SDS011;36250;48.740;22.174;2023-05-29T09:53:22;6.03;;;3.70;;
50350;SDS011;36250;48.740;22.174;2023-05-29T09:55:52;7.50;;;4.38;;
50350;SDS011;36250;48.740;22.174;2023-05-29T09:58:19;8.02;;;3.55;;
50350;SDS011;36250;48.740;22.174;2023-05-29T10:00:45;6.75;;;4.10;;
50350;SDS011;36250;48.740;22.174;2023-05-29T10:03:12;5.53;;;4.35;;
50350;SDS011;36250;48.740;22.174;2023-05-29T10:05:39;11.40;;;3.85;;
50350;SDS011;36250;48.740;22.174;2023-05-29T10:08:07;9.75;;;3.80;;
50350;SDS011;36250;48.740;22.174;2023-05-29T10:10:36;8.77;;;4.30;;
50350;SDS011;36250;48.740;22.174;2023-05-29T10:13:03;6.35;;;4.22;;
50350;SDS011;36250;48.740;22.174;2023-05-29T10:15:31;5.32;;;4.15;;
50350;SDS011;36250;48.740;22.174;2023-05-29T10:18:05;7.65;;;4.50;;
50350;SDS011;36250;48.740;22.174;2023-05-29T10:20:38;6.95;;;4.20;;
50350;SDS011;36250;48.740;22.174;2023-05-29T10:23:06;5.13;;;3.75;;
50350;SDS011;36250;48.740;22.174;2023-05-29T10:25:33;5.18;;;3.97;;
50350;SDS011;36250;48.740;22.174;2023-05-29T10:28:00;6.00;;;4.10;;
50350;SDS011;36250;48.740;22.174;2023-05-29T10:30:33;9.60;;;4.38;;
50350;SDS011;36250;48.740;22.174;2023-05-29T10:35:53;7.57;;;4.53;;
50350;SDS011;36250;48.740;22.174;2023-05-29T10:38:26;8.70;;;4.18;;
50350;SDS011;36250;48.740;22.174;2023-05-29T10:40:51;8.93;;;4.80;;
50350;SDS011;36250;48.740;22.174;2023-05-29T10:43:33;5.55;;;3.70;;
50350;SDS011;36250;48.740;22.174;2023-05-29T10:45:59;7.70;;;3.85;;
50350;SDS011;36250;48.740;22.174;2023-05-29T10:50:54;6.50;;;4.10;;
50350;SDS011;36250;48.740;22.174;2023-05-29T10:53:24;4.55;;;3.95;;
50350;SDS011;36250;48.740;22.174;2023-05-29T10:55:51;5.35;;;4.40;;
50350;SDS011;36250;48.740;22.174;2023-05-29T10:58:19;4.47;;;3.88;;
50350;SDS011;36250;48.740;22.174;2023-05-29T11:00:46;3.97;;;3.58;;
50350;SDS011;36250;48.740;22.174;2023-05-29T11:03:17;6.10;;;4.00;;
50350;SDS011;36250;48.740;22.174;2023-05-29T11:06:04;10.82;;;3.90;;
50350;SDS011;36250;48.740;22.174;2023-05-29T11:11:07;11.10;;;3.53;;
50350;SDS011;36250;48.740;22.174;2023-05-29T11:13:37;6.05;;;3.90;;
50350;SDS011;36250;48.740;22.174;2023-05-29T11:18:42;6.90;;;3.92;;
50350;SDS011;36250;48.740;22.174;2023-05-29T11:21:21;9.38;;;4.32;;
50350;SDS011;36250;48.740;22.174;2023-05-29T11:23:51;9.55;;;3.58;;
50350;SDS011;36250;48.740;22.174;2023-05-29T11:26:19;4.03;;;3.33;;
50350;SDS011;36250;48.740;22.174;2023-05-29T11:28:45;8.77;;;3.78;;
50350;SDS011;36250;48.740;22.174;2023-05-29T11:31:11;7.63;;;3.47;;
50350;SDS011;36250;48.740;22.174;2023-05-29T11:33:39;4.72;;;3.78;;
50350;SDS011;36250;48.740;22.174;2023-05-29T11:36:08;7.25;;;3.50;;
50350;SDS011;36250;48.740;22.174;2023-05-29T11:38:34;9.48;;;4.93;;
50350;SDS011;36250;48.740;22.174;2023-05-29T11:41:01;6.55;;;4.00;;
50350;SDS011;36250;48.740;22.174;2023-05-29T11:43:26;4.47;;;3.55;;
50350;SDS011;36250;48.740;22.174;2023-05-29T11:45:52;4.72;;;3.60;;
50350;SDS011;36250;48.740;22.174;2023-05-29T11:48:17;5.78;;;4.00;;
50350;SDS011;36250;48.740;22.174;2023-05-29T11:50:43;7.72;;;4.57;;
50350;SDS011;36250;48.740;22.174;2023-05-29T11:53:11;5.28;;;3.80;;
50350;SDS011;36250;48.740;22.174;2023-05-29T11:55:36;4.90;;;3.63;;
50350;SDS011;36250;48.740;22.174;2023-05-29T11:58:03;7.22;;;3.75;;
50350;SDS011;36250;48.740;22.174;2023-05-29T12:00:35;6.30;;;4.28;;
50350;SDS011;36250;48.740;22.174;2023-05-29T12:03:02;8.80;;;4.53;;
50350;SDS011;36250;48.740;22.174;2023-05-29T12:05:32;7.32;;;4.40;;
50350;SDS011;36250;48.740;22.174;2023-05-29T12:08:09;7.95;;;4.18;;
50350;SDS011;36250;48.740;22.174;2023-05-29T12:10:35;7.07;;;3.70;;
50350;SDS011;36250;48.740;22.174;2023-05-29T12:13:01;7.10;;;3.92;;
50350;SDS011;36250;48.740;22.174;2023-05-29T12:15:26;7.57;;;4.40;;
50350;SDS011;36250;48.740;22.174;2023-05-29T12:17:52;6.07;;;3.95;;
50350;SDS011;36250;48.740;22.174;2023-05-29T12:20:19;8.02;;;4.30;;
50350;SDS011;36250;48.740;22.174;2023-05-29T12:22:46;4.90;;;3.67;;
50350;SDS011;36250;48.740;22.174;2023-05-29T12:25:13;8.38;;;4.43;;
50350;SDS011;36250;48.740;22.174;2023-05-29T12:27:41;6.13;;;4.50;;
50350;SDS011;36250;48.740;22.174;2023-05-29T12:30:11;6.38;;;3.95;;
50350;SDS011;36250;48.740;22.174;2023-05-29T12:32:40;4.40;;;3.50;;
50350;SDS011;36250;48.740;22.174;2023-05-29T12:35:13;4.85;;;3.50;;
50350;SDS011;36250;48.740;22.174;2023-05-29T12:37:49;4.40;;;4.00;;
50350;SDS011;36250;48.740;22.174;2023-05-29T12:40:20;8.15;;;4.30;;
50350;SDS011;36250;48.740;22.174;2023-05-29T12:42:47;6.28;;;4.05;;
50350;SDS011;36250;48.740;22.174;2023-05-29T12:45:13;5.88;;;3.40;;
50350;SDS011;36250;48.740;22.174;2023-05-29T12:47:52;8.82;;;4.68;;
50350;SDS011;36250;48.740;22.174;2023-05-29T12:50:19;7.53;;;4.68;;
50350;SDS011;36250;48.740;22.174;2023-05-29T12:55:30;9.48;;;4.15;;
50350;SDS011;36250;48.740;22.174;2023-05-29T12:58:09;6.25;;;3.90;;
50350;SDS011;36250;48.740;22.174;2023-05-29T13:03:01;6.65;;;3.78;;
50350;SDS011;36250;48.740;22.174;2023-05-29T13:05:27;7.93;;;4.03;;
50350;SDS011;36250;48.740;22.174;2023-05-29T13:07:53;5.95;;;3.95;;
50350;SDS011;36250;48.740;22.174;2023-05-29T13:10:19;9.10;;;3.80;;
50350;SDS011;36250;48.740;22.174;2023-05-29T13:12:45;7.18;;;4.15;;
50350;SDS011;36250;48.740;22.174;2023-05-29T13:15:12;7.10;;;4.45;;
50350;SDS011;36250;48.740;22.174;2023-05-29T13:17:38;9.85;;;4.18;;
50350;SDS011;36250;48.740;22.174;2023-05-29T13:20:10;4.57;;;3.95;;
50350;SDS011;36250;48.740;22.174;2023-05-29T13:22:37;4.40;;;3.38;;
50350;SDS011;36250;48.740;22.174;2023-05-29T13:25:04;4.82;;;4.10;;
50350;SDS011;36250;48.740;22.174;2023-05-29T13:27:31;8.82;;;4.28;;
50350;SDS011;36250;48.740;22.174;2023-05-29T13:29:57;5.28;;;4.15;;
50350;SDS011;36250;48.740;22.174;2023-05-29T13:32:22;6.43;;;4.60;;
50350;SDS011;36250;48.740;22.174;2023-05-29T13:34:48;4.85;;;4.35;;
50350;SDS011;36250;48.740;22.174;2023-05-29T13:37:13;5.82;;;4.28;;
50350;SDS011;36250;48.740;22.174;2023-05-29T13:39:38;8.40;;;4.28;;
50350;SDS011;36250;48.740;22.174;2023-05-29T13:42:04;4.85;;;3.97;;
50350;SDS011;36250;48.740;22.174;2023-05-29T13:44:30;9.68;;;4.53;;
50350;SDS011;36250;48.740;22.174;2023-05-29T13:46:56;8.07;;;4.43;;
50350;SDS011;36250;48.740;22.174;2023-05-29T13:49:21;7.05;;;4.60;;
50350;SDS011;36250;48.740;22.174;2023-05-29T13:51:46;7.18;;;4.65;;
50350;SDS011;36250;48.740;22.174;2023-05-29T13:54:12;8.55;;;4.50;;
50350;SDS011;36250;48.740;22.174;2023-05-29T13:56:38;6.03;;;4.20;;
50350;SDS011;36250;48.740;22.174;2023-05-29T13:59:04;4.97;;;4.47;;
50350;SDS011;36250;48.740;22.174;2023-05-29T14:01:31;5.63;;;4.53;;
50350;SDS011;36250;48.740;22.174;2023-05-29T14:03:58;6.45;;;4.78;;
50350;SDS011;36250;48.740;22.174;2023-05-29T14:06:24;6.72;;;4.32;;
50350;SDS011;36250;48.740;22.174;2023-05-29T14:08:49;7.95;;;4.32;;
50350;SDS011;36250;48.740;22.174;2023-05-29T14:11:14;6.45;;;4.10;;
50350;SDS011;36250;48.740;22.174;2023-05-29T14:13:40;13.52;;;4.28;;
50350;SDS011;36250;48.740;22.174;2023-05-29T14:16:05;5.63;;;4.30;;
50350;SDS011;36250;48.740;22.174;2023-05-29T14:18:30;6.55;;;4.05;;
50350;SDS011;36250;48.740;22.174;2023-05-29T14:20:56;8.38;;;3.95;;
50350;SDS011;36250;48.740;22.174;2023-05-29T14:23:21;4.95;;;4.10;;
50350;SDS011;36250;48.740;22.174;2023-05-29T14:25:47;8.25;;;4.45;;
50350;SDS011;36250;48.740;22.174;2023-05-29T14:28:12;6.22;;;4.07;;
50350;SDS011;36250;48.740;22.174;2023-05-29T14:30:37;6.32;;;4.38;;
50350;SDS011;36250;48.740;22.174;2023-05-29T14:33:03;8.15;;;4.80;;
50350;SDS011;36250;48.740;22.174;2023-05-29T14:35:29;6.95;;;4.20;;
50350;SDS011;36250;48.740;22.174;2023-05-29T14:37:56;6.38;;;3.97;;
50350;SDS011;36250;48.740;22.174;2023-05-29T14:40:21;5.45;;;4.25;;
50350;SDS011;36250;48.740;22.174;2023-05-29T14:42:47;6.60;;;4.65;;
50350;SDS011;36250;48.740;22.174;2023-05-29T14:45:12;7.95;;;4.30;;
50350;SDS011;36250;48.740;22.174;2023-05-29T14:47:39;6.82;;;4.60;;
50350;SDS011;36250;48.740;22.174;2023-05-29T14:50:05;7.75;;;5.22;;
50350;SDS011;36250;48.740;22.174;2023-05-29T14:52:31;9.50;;;4.20;;